Time;durP1;ratioP1;P1;durP2;ratioP2;P2;SDS_P1;SDS_P2;PMS_P1;PMS_P2;Temp;Humidity;BMP_temperature;BMP_pressure;BME280_temperature;BME280_humidity;BME280_pressure;Samples;Min_cycle;Max_cycle;Signal;HPM_P1;HPM_P2
2021/12/07 00:01:38;;;;;;;20.20;7.38;;;8.70;66.90;;;;;;5099173;28;20016;-44
2021/12/07 00:04:05;;;;;;;20.90;8.07;;;8.70;67.10;;;;;;5098931;28;20055;-43
2021/12/07 00:06:31;;;;;;;23.75;9.10;;;8.60;66.90;;;;;;5098842;28;20020;-43
2021/12/07 00:08:57;;;;;;;21.40;9.15;;;8.60;67.10;;;;;;5098535;28;20095;-43
2021/12/07 00:11:25;;;;;;;20.17;9.25;;;8.60;67.10;;;;;;5098597;28;20058;-43
2021/12/07 00:13:52;;;;;;;18.70;8.63;;;8.60;67.10;;;;;;5098758;28;20016;-44
2021/12/07 00:16:19;;;;;;;20.65;8.00;;;8.60;67.40;;;;;;5098702;28;20028;-44
2021/12/07 00:18:45;;;;;;;18.27;7.55;;;8.50;67.10;;;;;;5098357;28;20031;-43
2021/12/07 00:21:11;;;;;;;12.18;5.57;;;8.50;67.30;;;;;;5098687;28;20020;-44
2021/12/07 00:23:37;;;;;;;11.27;4.18;;;8.60;67.50;;;;;;5098267;28;20490;-44
2021/12/07 00:26:04;;;;;;;13.30;4.18;;;8.60;67.40;;;;;;5098219;28;20031;-43
2021/12/07 00:28:31;;;;;;;10.93;3.13;;;8.50;67.40;;;;;;5098259;28;20028;-43
2021/12/07 00:31:08;;;;;;;8.25;2.65;;;8.50;67.40;;;;;;5098054;28;20036;-43
2021/12/07 00:33:42;;;;;;;10.23;2.33;;;8.60;67.40;;;;;;5098320;28;20422;-43
2021/12/07 00:36:08;;;;;;;9.00;2.33;;;8.50;67.50;;;;;;5098238;28;20086;-43
2021/12/07 00:38:34;;;;;;;7.63;2.10;;;8.50;67.30;;;;;;5098236;28;20020;-43
2021/12/07 00:41:01;;;;;;;9.38;1.95;;;8.50;67.50;;;;;;5098146;28;20498;-44
2021/12/07 00:43:29;;;;;;;7.32;1.65;;;8.50;67.50;;;;;;5098311;28;20488;-43
2021/12/07 00:45:58;;;;;;;7.82;1.90;;;8.50;67.60;;;;;;5097434;28;20074;-43
2021/12/07 00:48:25;;;;;;;7.75;2.15;;;8.50;67.80;;;;;;5098222;28;20387;-43
2021/12/07 00:50:51;;;;;;;6.72;2.58;;;8.60;67.70;;;;;;5098349;28;20023;-43
2021/12/07 00:53:18;;;;;;;9.52;2.03;;;8.60;67.80;;;;;;5098170;28;20395;-43
2021/12/07 00:55:50;;;;;;;6.82;1.80;;;8.60;67.80;;;;;;5098130;28;20028;-43
2021/12/07 00:58:21;;;;;;;8.50;2.00;;;8.60;67.80;;;;;;5097750;28;20024;-44
2021/12/07 01:00:51;;;;;;;7.95;1.52;;;8.60;67.80;;;;;;5097985;28;20032;-43
2021/12/07 01:03:17;;;;;;;7.38;1.63;;;8.60;67.60;;;;;;5098086;28;20107;-43
2021/12/07 01:05:49;;;;;;;5.18;1.90;;;8.50;67.60;;;;;;5098074;28;20035;-44
2021/12/07 01:08:25;;;;;;;6.30;1.60;;;8.50;67.70;;;;;;5097542;28;20103;-44
2021/12/07 01:24:42;;;;;;;5.15;1.33;;;8.40;67.70;;;;;;5097679;28;20035;-43
2021/12/07 01:27:15;;;;;;;8.27;1.60;;;8.30;67.60;;;;;;5097526;28;20056;-43
2021/12/07 01:29:43;;;;;;;5.28;1.55;;;8.30;67.60;;;;;;5097546;28;20083;-44
2021/12/07 01:49:52;;;;;;;9.27;2.00;;;8.30;68.00;;;;;;5097364;28;20523;-43
2021/12/07 02:01:46;;;;;;;6.95;2.30;;;8.50;68.60;;;;;;5101453;28;20059;-43
2021/12/07 02:04:11;;;;;;;10.68;2.65;;;8.50;68.90;;;;;;5100957;28;20492;-43
2021/12/07 02:06:37;;;;;;;10.57;2.53;;;8.50;68.60;;;;;;5101061;28;20012;-44
2021/12/07 02:09:05;;;;;;;10.43;2.05;;;8.60;68.60;;;;;;5100959;28;20395;-44
2021/12/07 02:11:32;;;;;;;14.25;2.40;;;8.60;68.60;;;;;;5101089;28;20036;-43
2021/12/07 02:16:29;;;;;;;15.98;3.13;;;8.70;68.10;;;;;;5100741;28;20104;-44
2021/12/07 02:18:54;;;;;;;11.95;2.58;;;8.80;68.10;;;;;;5100463;28;20048;-43
2021/12/07 02:21:24;;;;;;;10.10;2.00;;;8.80;68.10;;;;;;5100938;28;20035;-44
2021/12/07 02:23:51;;;;;;;14.85;2.60;;;8.90;68.40;;;;;;5100883;28;20416;-43
2021/12/07 02:26:17;;;;;;;13.38;3.00;;;8.90;68.30;;;;;;5100630;28;20935;-43
2021/12/07 02:28:44;;;;;;;13.38;2.67;;;9.00;68.20;;;;;;5100783;28;20103;-43
2021/12/07 02:31:11;;;;;;;13.77;2.58;;;9.00;68.20;;;;;;5100760;28;20490;-44
2021/12/07 02:33:37;;;;;;;13.43;2.58;;;9.10;68.40;;;;;;5100686;28;20430;-43
2021/12/07 02:36:04;;;;;;;11.80;2.20;;;9.20;68.20;;;;;;5100667;28;20111;-44
2021/12/07 02:38:30;;;;;;;11.77;2.33;;;9.20;68.20;;;;;;5100560;28;20024;-43
2021/12/07 02:40:56;;;;;;;14.65;2.55;;;9.30;68.20;;;;;;5100336;28;20475;-44
2021/12/07 02:43:22;;;;;;;13.63;2.75;;;9.40;68.30;;;;;;5100548;28;20024;-43
2021/12/07 02:45:48;;;;;;;15.82;2.45;;;9.50;68.60;;;;;;5100450;28;20532;-44
2021/12/07 02:48:14;;;;;;;17.50;3.22;;;9.60;68.50;;;;;;5100283;28;20361;-44
2021/12/07 02:50:39;;;;;;;11.57;2.42;;;9.60;68.70;;;;;;5100081;28;20032;-44
2021/12/07 02:53:05;;;;;;;11.68;2.60;;;9.70;68.80;;;;;;5100484;28;20032;-43
2021/12/07 02:55:32;;;;;;;15.60;2.45;;;9.80;68.80;;;;;;5100037;28;20436;-44
2021/12/07 02:57:58;;;;;;;12.30;1.98;;;9.90;69.00;;;;;;5100031;28;20491;-44
2021/12/07 03:00:31;;;;;;;11.38;2.80;;;10.00;68.70;;;;;;5099965;28;20020;-44
2021/12/07 03:03:03;;;;;;;11.30;1.88;;;10.00;68.70;;;;;;5099924;28;20016;-43
2021/12/07 03:26:45;;;;;;;13.43;2.83;;;10.40;68.10;;;;;;5099158;28;20127;-45
2021/12/07 03:29:11;;;;;;;12.70;2.80;;;10.40;68.00;;;;;;5099826;28;20032;-44
2021/12/07 03:31:36;;;;;;;15.43;3.53;;;10.40;68.70;;;;;;5099408;28;20016;-44
2021/12/07 03:34:03;;;;;;;19.92;3.35;;;10.50;68.20;;;;;;5099520;28;20020;-43
2021/12/07 03:36:29;;;;;;;15.65;3.10;;;10.50;68.50;;;;;;5099191;28;20817;-44
2021/12/07 03:38:55;;;;;;;13.52;2.60;;;10.50;68.70;;;;;;5099158;28;20016;-44
2021/12/07 03:41:21;;;;;;;16.20;2.58;;;10.50;68.90;;;;;;5099075;28;20536;-44
2021/12/07 03:43:47;;;;;;;14.13;3.08;;;10.60;69.00;;;;;;5099101;28;20055;-44
2021/12/07 03:46:13;;;;;;;18.20;2.78;;;10.60;69.20;;;;;;5099185;28;20058;-44
2021/12/07 03:48:40;;;;;;;22.33;3.85;;;10.60;69.50;;;;;;5099127;28;20078;-43
2021/12/07 03:51:07;;;;;;;17.00;2.78;;;10.70;69.20;;;;;;5099471;28;20028;-44
2021/12/07 03:53:33;;;;;;;16.35;3.25;;;10.70;69.50;;;;;;5099127;28;20081;-44
2021/12/07 03:56:00;;;;;;;18.83;3.28;;;10.70;69.60;;;;;;5097569;28;20047;-44
2021/12/07 03:58:26;;;;;;;20.23;3.45;;;10.80;69.70;;;;;;5098832;28;20467;-44
2021/12/07 04:00:52;;;;;;;20.27;2.95;;;10.80;70.00;;;;;;5098989;28;20052;-44
2021/12/07 04:03:19;;;;;;;22.10;3.22;;;10.90;69.90;;;;;;5098922;28;20065;-44
2021/12/07 04:05:49;;;;;;;16.45;3.25;;;10.90;69.60;;;;;;5098704;28;20024;-44
2021/12/07 04:08:18;;;;;;;19.65;3.40;;;11.00;70.10;;;;;;5098858;28;20024;-44
2021/12/07 04:10:44;;;;;;;14.55;3.08;;;11.00;69.50;;;;;;5098664;28;20111;-44
2021/12/07 04:13:11;;;;;;;19.77;3.83;;;11.00;70.00;;;;;;5098570;28;20024;-43
2021/12/07 04:15:37;;;;;;;19.85;3.50;;;11.00;70.00;;;;;;5098536;28;20034;-44
2021/12/07 04:18:04;;;;;;;17.77;3.08;;;11.10;70.20;;;;;;5098366;28;20027;-44
2021/12/07 04:20:30;;;;;;;21.27;3.33;;;11.10;70.50;;;;;;5098359;28;20467;-44
2021/12/07 04:22:57;;;;;;;17.77;3.15;;;11.10;70.10;;;;;;5098636;28;20020;-44
2021/12/07 04:25:23;;;;;;;17.70;4.28;;;11.10;70.10;;;;;;5098542;28;20467;-44
2021/12/07 04:27:51;;;;;;;22.70;3.78;;;11.20;70.70;;;;;;5098099;28;20052;-44
2021/12/07 04:30:30;;;;;;;21.38;4.35;;;11.20;70.80;;;;;;5098478;28;20024;-43
2021/12/07 04:32:58;;;;;;;26.20;4.00;;;11.20;70.50;;;;;;5098451;28;20032;-44
2021/12/07 04:35:24;;;;;;;20.75;3.85;;;11.20;70.40;;;;;;5098397;28;20380;-44
2021/12/07 04:37:51;;;;;;;20.40;3.72;;;11.20;70.20;;;;;;5097901;28;20028;-44
2021/12/07 04:40:20;;;;;;;22.48;3.97;;;11.30;70.70;;;;;;5098145;28;20048;-44
2021/12/07 04:42:47;;;;;;;24.40;3.90;;;11.30;70.50;;;;;;5098286;28;20020;-44
2021/12/07 04:58:27;;;;;;;23.80;4.32;;;11.40;70.70;;;;;;5097704;28;20108;-44
2021/12/07 05:00:53;;;;;;;18.65;3.33;;;11.40;70.40;;;;;;5097921;28;20475;-44
2021/12/07 05:03:19;;;;;;;24.98;4.97;;;11.40;70.40;;;;;;5098058;28;20016;-44
2021/12/07 05:05:49;;;;;;;21.52;4.30;;;11.40;70.70;;;;;;5097756;28;20035;-44
2021/12/07 05:08:28;;;;;;;17.60;4.53;;;11.40;70.20;;;;;;5097871;28;20557;-44
2021/12/07 05:13:40;;;;;;;20.83;3.80;;;11.40;70.20;;;;;;5097954;28;20081;-44
2021/12/07 05:16:28;;;;;;;19.98;3.85;;;11.40;69.90;;;;;;5097557;28;20028;-44
2021/12/07 05:24:12;;;;;;;;;;;11.30;69.90;;;;;;5098458;28;20553;-44
2021/12/07 05:37:57;;;;;;;20.60;3.42;;;11.40;70.30;;;;;;5101342;28;20024;-44
2021/12/07 05:40:33;;;;;;;22.25;4.45;;;11.40;70.80;;;;;;5101443;28;20024;-44
2021/12/07 05:43:00;;;;;;;24.70;5.65;;;11.40;70.70;;;;;;5101546;28;20467;-43
2021/12/07 05:45:35;;;;;;;26.08;4.55;;;11.50;71.20;;;;;;5101613;28;20039;-44
2021/12/07 05:48:02;;;;;;;29.70;4.20;;;11.50;70.90;;;;;;5101662;28;20099;-44
2021/12/07 05:50:31;;;;;;;28.55;4.50;;;11.50;70.80;;;;;;5101903;28;20364;-44
2021/12/07 05:52:57;;;;;;;28.45;5.38;;;11.50;71.30;;;;;;5101594;28;20032;-44
2021/12/07 05:55:23;;;;;;;23.95;4.70;;;11.50;71.40;;;;;;5101685;28;20158;-44
2021/12/07 05:57:49;;;;;;;21.77;4.10;;;11.50;71.40;;;;;;5101086;28;20031;-44
2021/12/07 06:00:35;;;;;;;34.80;5.47;;;11.60;71.10;;;;;;5101032;28;20024;-44
2021/12/07 06:03:06;;;;;;;26.00;5.25;;;11.60;71.50;;;;;;5101103;28;20027;-44
2021/12/07 06:05:34;;;;;;;24.80;5.20;;;11.60;71.40;;;;;;5101487;28;20016;-44
2021/12/07 06:08:00;;;;;;;29.50;4.85;;;11.60;71.10;;;;;;5100997;28;20502;-44
2021/12/07 06:10:26;;;;;;;24.67;4.97;;;11.60;70.90;;;;;;5100773;28;20085;-44
2021/12/07 06:12:53;;;;;;;18.75;3.88;;;11.60;71.00;;;;;;5100921;28;20028;-44
2021/12/07 06:15:21;;;;;;;21.90;3.95;;;11.70;71.10;;;;;;5100805;28;20066;-44
2021/12/07 06:17:47;;;;;;;24.88;4.18;;;11.70;71.00;;;;;;5100934;28;20048;-44
2021/12/07 06:20:14;;;;;;;18.65;4.28;;;11.70;71.30;;;;;;5100710;28;20074;-44
2021/12/07 06:22:40;;;;;;;32.15;5.00;;;11.70;71.30;;;;;;5100937;28;20479;-44
2021/12/07 06:25:07;;;;;;;27.45;5.78;;;11.70;71.50;;;;;;5100837;28;20039;-44
2021/12/07 06:27:33;;;;;;;24.30;6.22;;;11.70;71.40;;;;;;5100412;28;20059;-44
2021/12/07 06:29:59;;;;;;;26.65;4.30;;;11.70;71.40;;;;;;5100566;28;20024;-44
2021/12/07 06:32:25;;;;;;;31.65;5.38;;;11.70;71.60;;;;;;5100587;28;20070;-44
2021/12/07 06:34:52;;;;;;;29.73;4.32;;;11.70;71.60;;;;;;5100929;28;20032;-44
2021/12/07 06:37:18;;;;;;;26.73;5.47;;;11.70;71.80;;;;;;5100644;28;20028;-44
2021/12/07 06:39:44;;;;;;;25.88;4.35;;;11.80;71.80;;;;;;5100601;28;20052;-44
2021/12/07 06:42:11;;;;;;;28.42;4.93;;;11.80;72.00;;;;;;5099401;28;20024;-44
2021/12/07 06:44:37;;;;;;;35.58;5.88;;;11.80;72.10;;;;;;5099873;28;20039;-44
2021/12/07 06:47:03;;;;;;;28.02;5.78;;;11.80;72.00;;;;;;5100270;28;20390;-44
2021/12/07 06:49:29;;;;;;;27.33;5.38;;;11.80;71.90;;;;;;5100715;28;20471;-44
2021/12/07 06:51:55;;;;;;;25.88;4.50;;;11.90;72.10;;;;;;5100567;28;20020;-44
2021/12/07 06:54:21;;;;;;;28.13;4.93;;;11.90;72.60;;;;;;5100138;28;20043;-44
2021/12/07 06:56:46;;;;;;;23.55;4.47;;;11.90;72.10;;;;;;5100376;28;20047;-44
2021/12/07 06:59:13;;;;;;;23.40;5.60;;;11.90;72.40;;;;;;5100271;28;20103;-44
2021/12/07 07:01:39;;;;;;;32.80;5.68;;;11.90;72.30;;;;;;5099942;28;20036;-44
2021/12/07 07:04:05;;;;;;;31.17;5.97;;;11.90;72.40;;;;;;5100129;28;20078;-43
2021/12/07 07:06:30;;;;;;;26.85;4.88;;;12.00;72.80;;;;;;5100066;28;20490;-44
2021/12/07 07:08:56;;;;;;;29.05;5.95;;;12.00;72.80;;;;;;5100015;28;20387;-44
2021/12/07 07:11:22;;;;;;;26.83;4.68;;;12.00;72.70;;;;;;5099885;28;20024;-44
2021/12/07 07:13:48;;;;;;;23.35;4.90;;;12.00;72.40;;;;;;5099698;28;20035;-44
2021/12/07 07:16:15;;;;;;;26.73;5.95;;;12.10;72.30;;;;;;5099797;28;20517;-44
2021/12/07 07:18:42;;;;;;;26.48;5.05;;;12.10;72.90;;;;;;5099572;28;20087;-44
2021/12/07 07:21:08;;;;;;;24.35;5.65;;;12.10;73.00;;;;;;5099561;28;20020;-44
2021/12/07 07:23:34;;;;;;;22.55;5.07;;;12.00;72.30;;;;;;5099764;28;20428;-44
2021/12/07 07:26:01;;;;;;;22.13;4.63;;;12.10;72.30;;;;;;5099309;28;20022;-44
2021/12/07 07:28:29;;;;;;;25.45;4.80;;;12.10;72.10;;;;;;5099224;28;20081;-44
2021/12/07 07:30:56;;;;;;;28.33;5.32;;;12.00;71.80;;;;;;5099402;28;20181;-44
2021/12/07 07:33:22;;;;;;;30.00;6.25;;;12.00;72.00;;;;;;5099353;28;20024;-44
2021/12/07 07:35:48;;;;;;;33.88;6.07;;;12.00;72.00;;;;;;5099539;28;20031;-44
2021/12/07 07:38:15;;;;;;;22.70;4.57;;;12.00;71.90;;;;;;5099206;28;20035;-44
2021/12/07 07:40:46;;;;;;;26.95;4.97;;;12.00;72.00;;;;;;5099288;28;20039;-44
2021/12/07 07:43:17;;;;;;;26.05;5.03;;;12.00;72.00;;;;;;5099611;28;20023;-43
2021/12/07 07:45:45;;;;;;;25.52;4.40;;;12.00;72.00;;;;;;5099339;28;20050;-44
2021/12/07 07:48:11;;;;;;;30.35;5.50;;;12.00;72.00;;;;;;5099306;28;20063;-44
2021/12/07 07:50:37;;;;;;;27.10;4.82;;;12.00;72.00;;;;;;5099227;28;20053;-44
2021/12/07 07:53:03;;;;;;;21.75;4.50;;;12.10;72.00;;;;;;5099125;28;20039;-44
2021/12/07 07:55:30;;;;;;;26.35;4.55;;;12.00;72.00;;;;;;5098571;28;20098;-44
2021/12/07 07:57:56;;;;;;;34.15;5.63;;;12.10;72.20;;;;;;5098852;28;20158;-44
2021/12/07 08:00:22;;;;;;;28.35;5.20;;;12.10;72.10;;;;;;5098839;28;20081;-44
2021/12/07 08:02:49;;;;;;;24.27;4.97;;;12.10;72.40;;;;;;5099065;28;20422;-43
2021/12/07 08:05:16;;;;;;;34.08;6.45;;;12.10;72.00;;;;;;5098585;28;20089;-46
2021/12/07 08:07:47;;;;;;;21.73;5.03;;;12.10;72.30;;;;;;5098871;28;20039;-44
2021/12/07 08:10:16;;;;;;;35.22;6.25;;;12.10;72.50;;;;;;5098051;28;20073;-44
2021/12/07 08:12:43;;;;;;;38.05;5.18;;;12.10;72.40;;;;;;5098464;28;20394;-44
2021/12/07 08:15:09;;;;;;;33.20;5.55;;;12.10;72.20;;;;;;5098217;28;20099;-44
2021/12/07 08:17:35;;;;;;;33.05;5.47;;;12.10;72.30;;;;;;5097645;28;20100;-45
2021/12/07 08:20:01;;;;;;;32.70;5.50;;;12.10;72.60;;;;;;5097963;28;20042;-45
2021/12/07 08:22:29;;;;;;;28.85;4.90;;;12.10;72.50;;;;;;5098017;28;20072;-45
2021/12/07 08:24:56;;;;;;;31.38;5.35;;;12.10;72.50;;;;;;5098201;28;20054;-44
2021/12/07 08:27:22;;;;;;;31.48;5.45;;;12.20;72.80;;;;;;5097817;28;20514;-44
2021/12/07 08:29:48;;;;;;;28.10;5.25;;;12.10;72.70;;;;;;5098266;28;20020;-44
2021/12/07 08:32:14;;;;;;;32.67;6.10;;;12.20;73.00;;;;;;5097115;28;20024;-44
2021/12/07 08:34:40;;;;;;;28.60;5.60;;;12.20;73.00;;;;;;5097691;28;20016;-43
2021/12/07 08:37:05;;;;;;;32.67;5.65;;;12.20;73.10;;;;;;5097824;28;20024;-43
2021/12/07 08:39:34;;;;;;;37.35;6.78;;;12.20;73.20;;;;;;5097937;28;20020;-43
2021/12/07 08:42:02;;;;;;;36.35;6.13;;;12.20;73.50;;;;;;5097864;28;20438;-42
2021/12/07 08:44:28;;;;;;;35.17;6.85;;;12.20;73.50;;;;;;5098319;28;20046;-43
2021/12/07 08:46:54;;;;;;;33.25;6.15;;;12.20;74.10;;;;;;5097427;28;20107;-44
2021/12/07 08:49:21;;;;;;;35.97;6.05;;;12.20;74.10;;;;;;5097345;28;20024;-43
2021/12/07 08:51:48;;;;;;;35.97;6.55;;;12.20;74.00;;;;;;5097383;28;20063;-42
2021/12/07 08:59:44;;;;;;;31.95;6.03;;;12.10;74.40;;;;;;5097493;28;20115;-42
2021/12/07 09:02:12;;;;;;;30.83;6.63;;;12.10;74.00;;;;;;5096751;28;20028;-43
2021/12/07 09:04:38;;;;;;;35.53;6.80;;;12.10;73.80;;;;;;5097162;28;20055;-42
2021/12/07 09:07:05;;;;;;;39.55;7.70;;;12.10;74.00;;;;;;5096541;28;20020;-42
2021/12/07 09:09:32;;;;;;;35.85;7.40;;;12.10;74.80;;;;;;5097094;28;20036;-42
2021/12/07 09:11:58;;;;;;;38.13;6.43;;;12.20;74.30;;;;;;5097152;28;20024;-42
2021/12/07 09:14:24;;;;;;;34.70;7.13;;;12.10;74.50;;;;;;5097360;28;20031;-43
2021/12/07 09:16:50;;;;;;;40.83;7.45;;;12.10;74.20;;;;;;5097167;28;20522;-42
2021/12/07 09:19:16;;;;;;;31.38;6.60;;;12.10;75.00;;;;;;5097019;28;20024;-42
2021/12/07 09:21:42;;;;;;;34.03;6.82;;;12.10;74.30;;;;;;5097298;28;20024;-42
2021/12/07 09:24:09;;;;;;;35.90;6.88;;;12.10;75.00;;;;;;5097322;28;20030;-42
2021/12/07 09:26:35;;;;;;;38.25;6.40;;;12.10;74.40;;;;;;5097063;28;20043;-41
2021/12/07 09:29:02;;;;;;;34.65;7.28;;;12.10;74.30;;;;;;5097080;28;20429;-42
2021/12/07 09:31:28;;;;;;;36.83;6.60;;;12.10;74.70;;;;;;5097306;28;20032;-42
2021/12/07 09:33:55;;;;;;;40.38;7.70;;;12.10;74.70;;;;;;5097121;28;20020;-42
2021/12/07 09:36:21;;;;;;;28.10;6.93;;;12.10;74.30;;;;;;5096888;28;20044;-42
2021/12/07 09:38:47;;;;;;;33.38;6.03;;;12.10;74.30;;;;;;5096891;28;20020;-42
2021/12/07 09:41:15;;;;;;;34.15;7.22;;;12.10;74.90;;;;;;5097142;28;20141;-42
2021/12/07 09:43:41;;;;;;;32.38;6.32;;;12.10;74.70;;;;;;5097128;28;20024;-42
2021/12/07 09:46:09;;;;;;;32.28;7.13;;;12.10;74.40;;;;;;5097090;28;20024;-42
2021/12/07 09:48:36;;;;;;;29.88;5.88;;;12.10;74.80;;;;;;5096814;28;20024;-43
2021/12/07 09:51:03;;;;;;;41.40;7.43;;;12.10;75.10;;;;;;5096917;28;20115;-42
2021/12/07 09:53:29;;;;;;;33.28;6.53;;;12.10;74.80;;;;;;5096836;28;20024;-42
2021/12/07 09:55:57;;;;;;;28.77;6.35;;;12.10;74.60;;;;;;5096877;28;20020;-42
2021/12/07 09:58:23;;;;;;;33.55;6.95;;;12.20;74.60;;;;;;5096883;28;20048;-43
2021/12/07 10:00:49;;;;;;;37.78;6.05;;;12.20;74.80;;;;;;5096763;28;20020;-43
2021/12/07 10:03:16;;;;;;;36.13;6.88;;;12.10;74.50;;;;;;5096807;28;20071;-43
2021/12/07 10:05:42;;;;;;;30.13;6.18;;;12.10;75.10;;;;;;5096719;28;20035;-43
2021/12/07 10:08:09;;;;;;;32.35;6.32;;;12.10;74.70;;;;;;5097016;28;20099;-42
2021/12/07 10:10:55;;;;;;;31.63;7.68;;;12.20;75.10;;;;;;5096711;28;20028;-41
2021/12/07 10:13:23;;;;;;;36.75;8.10;;;12.20;75.20;;;;;;5096719;28;20466;-42
2021/12/07 10:15:50;;;;;;;32.55;6.30;;;12.20;75.30;;;;;;5096494;28;20103;-42
2021/12/07 10:18:26;;;;;;;34.45;7.10;;;12.20;75.50;;;;;;5099338;28;20028;-42
2021/12/07 10:20:58;;;;;;;31.50;6.63;;;12.20;75.50;;;;;;5100211;28;20024;-42
2021/12/07 10:23:45;;;;;;;33.88;6.70;;;12.20;75.70;;;;;;5100362;28;20046;-42
2021/12/07 10:26:17;;;;;;;40.40;7.30;;;12.20;75.50;;;;;;5100286;28;20024;-42
2021/12/07 10:28:48;;;;;;;41.83;8.00;;;12.20;75.70;;;;;;5100238;28;20028;-42
2021/12/07 10:31:21;;;;;;;36.88;7.38;;;12.20;75.80;;;;;;5100229;28;20103;-41
2021/12/07 10:33:54;;;;;;;43.25;7.60;;;12.20;76.00;;;;;;5100044;28;20032;-42
2021/12/07 10:36:26;;;;;;;39.45;8.15;;;12.20;76.20;;;;;;5099378;28;20028;-41
2021/12/07 10:39:15;;;;;;;50.08;8.18;;;12.20;75.80;;;;;;5100013;28;20031;-42
2021/12/07 10:41:57;;;;;;;41.80;8.05;;;12.20;76.50;;;;;;5091811;28;20089;-45
2021/12/07 10:44:26;;;;;;;41.22;6.20;;;12.20;76.50;;;;;;5100011;28;20024;-43
2021/12/07 10:47:09;;;;;;;39.38;7.72;;;12.20;76.50;;;;;;5100363;28;20055;-42
2021/12/07 10:49:49;;;;;;;33.72;6.68;;;12.20;76.50;;;;;;5099910;28;20043;-42
2021/12/07 10:52:25;;;;;;;28.00;6.60;;;12.20;76.40;;;;;;5099877;28;20024;-42
2021/12/07 10:55:15;;;;;;;29.02;6.30;;;12.20;76.80;;;;;;5099513;28;20035;-43
2021/12/07 10:57:44;;;;;;;42.78;7.45;;;12.20;76.20;;;;;;5098802;28;20081;-42
2021/12/07 11:00:22;;;;;;;29.40;6.60;;;12.30;76.50;;;;;;5099860;28;20047;-43
2021/12/07 11:03:01;;;;;;;25.75;5.85;;;12.30;76.70;;;;;;5099438;28;20518;-42
2021/12/07 11:05:31;;;;;;;28.92;6.78;;;12.30;77.10;;;;;;5099693;28;20375;-42
2021/12/07 11:08:00;;;;;;;36.83;5.93;;;12.30;77.20;;;;;;5099133;28;20078;-42
2021/12/07 11:10:30;;;;;;;31.40;5.63;;;12.30;77.00;;;;;;5099399;28;20032;-43
2021/12/07 11:13:23;;;;;;;30.40;6.07;;;12.30;77.10;;;;;;5099443;28;20073;-43
2021/12/07 11:16:04;;;;;;;29.88;5.80;;;12.40;77.00;;;;;;5099700;28;20070;-43
2021/12/07 11:18:36;;;;;;;36.65;7.50;;;12.40;76.70;;;;;;5099184;28;20038;-42
2021/12/07 11:21:12;;;;;;;30.88;5.47;;;12.40;77.00;;;;;;5099042;28;20024;-43
2021/12/07 11:23:42;;;;;;;36.58;7.22;;;12.40;77.10;;;;;;5099046;28;20016;-42
2021/12/07 11:31:51;;;;;;;33.58;6.97;;;12.40;76.50;;;;;;5098853;28;20063;-42
2021/12/07 11:34:22;;;;;;;26.55;5.93;;;12.40;76.70;;;;;;5099005;28;20054;-42
2021/12/07 11:36:49;;;;;;;34.90;6.65;;;12.40;77.00;;;;;;5098843;28;20558;-42
2021/12/07 11:39:25;;;;;;;30.30;6.63;;;12.40;77.20;;;;;;5098509;28;20028;-42
2021/12/07 11:42:02;;;;;;;34.72;6.57;;;12.40;76.90;;;;;;5098521;28;20024;-43
2021/12/07 11:44:29;;;;;;;29.02;5.82;;;12.50;76.90;;;;;;5098872;28;20024;-42
2021/12/07 11:46:57;;;;;;;31.67;5.18;;;12.50;76.70;;;;;;5098614;28;20433;-41
2021/12/07 11:49:29;;;;;;;30.10;6.32;;;12.50;76.90;;;;;;5098714;28;20524;-41
2021/12/07 11:51:57;;;;;;;26.15;4.35;;;12.50;76.80;;;;;;5098732;28;20048;-42
2021/12/07 11:54:32;;;;;;;28.23;5.22;;;12.50;76.60;;;;;;5098727;28;20024;-42
2021/12/07 11:56:59;;;;;;;;;;;12.50;76.20;;;;;;5099102;28;20096;-41
2021/12/07 11:59:25;;;;;;;27.20;5.65;;;12.60;77.00;;;;;;5098610;28;20002;-42
2021/12/07 12:01:52;;;;;;;25.90;4.95;;;12.60;76.60;;;;;;5098530;28;20027;-42
2021/12/07 12:04:20;;;;;;;36.17;5.75;;;12.60;76.20;;;;;;5098467;28;20477;-42
2021/12/07 12:06:51;;;;;;;28.98;6.20;;;12.60;76.10;;;;;;5098191;28;20032;-41
2021/12/07 12:09:18;;;;;;;25.48;4.65;;;12.60;76.50;;;;;;5098173;28;20012;-42
2021/12/07 12:11:53;;;;;;;22.98;5.35;;;12.70;76.00;;;;;;5097831;28;20043;-41
2021/12/07 12:14:38;;;;;;;28.67;6.00;;;12.70;75.40;;;;;;5098471;28;20380;-42
2021/12/07 12:17:23;;;;;;;34.42;7.25;;;12.60;75.20;;;;;;5098014;28;20031;-42
2021/12/07 12:20:26;;;;;;;32.33;6.70;;;12.50;74.90;;;;;;5097971;28;20036;-42
2021/12/07 12:23:33;;;;;;;30.48;7.90;;;12.40;75.00;;;;;;5098144;28;20076;-42
2021/12/07 12:26:04;;;;;;;45.33;13.77;;;12.40;74.90;;;;;;5088187;28;20101;-41
2021/12/07 12:28:38;;;;;;;36.42;11.73;;;12.30;74.80;;;;;;5097707;28;20027;-41
2021/12/07 12:31:06;;;;;;;34.05;7.65;;;12.30;75.00;;;;;;5097569;28;20035;-42
2021/12/07 12:33:54;;;;;;;31.27;9.32;;;12.20;75.00;;;;;;5097864;28;20483;-42
2021/12/07 12:36:23;;;;;;;31.10;7.43;;;12.20;74.90;;;;;;5098085;28;20024;-42
2021/12/07 12:39:04;;;;;;;33.72;14.95;;;12.20;75.20;;;;;;5097703;28;20024;-44
2021/12/07 12:41:30;;;;;;;28.55;7.00;;;12.30;75.10;;;;;;5097802;28;20487;-46
2021/12/07 12:44:05;;;;;;;42.75;10.13;;;12.40;74.70;;;;;;5097826;28;20020;-47
2021/12/07 12:46:33;;;;;;;28.50;6.68;;;12.50;74.50;;;;;;5097772;28;20104;-45
2021/12/07 12:49:05;;;;;;;36.38;12.27;;;13.00;76.00;;;;;;5097531;28;20036;-46
2021/12/07 12:51:42;;;;;;;29.10;6.38;;;13.80;74.30;;;;;;5097492;28;20118;-49
2021/12/07 12:54:09;;;;;;;32.50;7.10;;;14.00;73.10;;;;;;5097519;28;20035;-45
2021/12/07 12:56:37;;;;;;;33.97;7.47;;;14.00;72.80;;;;;;5097483;28;20024;-47
2021/12/07 12:59:07;;;;;;;33.90;9.20;;;14.20;72.70;;;;;;5097294;28;20055;-44
2021/12/07 13:01:39;;;;;;;33.72;8.48;;;14.70;72.30;;;;;;5096929;28;20020;-48
2021/12/07 13:04:24;;;;;;;41.38;7.07;;;15.40;70.10;;;;;;5097481;28;20032;-48
2021/12/07 13:09:44;;;;;;;36.85;8.00;;;15.50;68.70;;;;;;5097147;28;20107;-44
2021/12/07 13:12:20;;;;;;;47.63;8.88;;;15.90;68.90;;;;;;5097484;28;20028;-47
2021/12/07 13:14:49;;;;;;;39.92;8.02;;;16.60;65.70;;;;;;5096807;28;20020;-48
2021/12/07 13:17:17;;;;;;;47.47;12.98;;;17.20;66.10;;;;;;5097214;28;20032;-45
2021/12/07 13:20:10;;;;;;;44.97;11.10;;;17.80;64.10;;;;;;5097335;28;20031;-47
2021/12/07 13:23:11;;;;;;;47.08;13.50;;;18.30;63.90;;;;;;5097217;28;20092;-48
2021/12/07 13:25:42;;;;;;;52.15;16.98;;;18.80;64.00;;;;;;5073932;28;20077;-48
2021/12/07 13:28:30;;;;;;;42.40;9.25;;;19.00;63.70;;;;;;5096866;28;20055;-47
2021/12/07 13:31:18;;;;;;;37.85;7.13;;;19.30;63.40;;;;;;5097406;28;20059;-48
2021/12/07 13:33:55;;;;;;;40.00;8.43;;;18.80;60.20;;;;;;5097675;28;20035;-48
2021/12/07 13:36:41;;;;;;;38.00;8.32;;;18.70;60.90;;;;;;5097256;28;20024;-46
2021/12/07 13:39:27;;;;;;;32.28;9.63;;;18.50;60.20;;;;;;5097502;28;20023;-50
2021/12/07 13:42:11;;;;;;;31.15;7.13;;;18.30;57.80;;;;;;5096747;28;20101;-50
2021/12/07 13:44:47;;;;;;;37.63;12.47;;;18.30;60.40;;;;;;5097562;28;20016;-48
2021/12/07 13:47:16;;;;;;;35.67;6.78;;;18.30;61.20;;;;;;5097611;28;20440;-47
2021/12/07 13:49:47;;;;;;;31.48;8.13;;;18.00;56.90;;;;;;5097669;28;20365;-45
2021/12/07 13:52:17;;;;;;;32.42;8.23;;;17.80;60.00;;;;;;5099224;28;20051;-48
2021/12/07 13:54:50;;;;;;;40.25;7.38;;;17.50;60.80;;;;;;5101567;28;20024;-47
2021/12/07 13:57:36;;;;;;;37.03;8.65;;;17.30;61.10;;;;;;5101491;28;20052;-47
2021/12/07 14:00:13;;;;;;;30.92;8.27;;;17.20;59.90;;;;;;5101266;28;20509;-46
2021/12/07 14:02:46;;;;;;;33.80;7.07;;;17.30;60.10;;;;;;5101356;28;20031;-47
2021/12/07 14:05:13;;;;;;;32.15;10.85;;;17.60;60.50;;;;;;5101077;28;20043;-50
2021/12/07 14:07:40;;;;;;;33.35;7.35;;;17.80;61.20;;;;;;5100818;28;20028;-46
2021/12/07 14:10:28;;;;;;;33.35;7.45;;;18.10;60.00;;;;;;5101228;28;20560;-50
2021/12/07 14:12:57;;;;;;;26.48;5.97;;;18.00;56.70;;;;;;5100978;28;20073;-49
2021/12/07 14:15:30;;;;;;;32.75;6.70;;;17.50;54.90;;;;;;5101052;28;20595;-47
2021/12/07 14:18:05;;;;;;;31.97;6.37;;;16.80;55.40;;;;;;5101024;28;20444;-47
2021/12/07 14:20:39;;;;;;;29.08;6.95;;;16.00;56.20;;;;;;5100839;28;20020;-49
2021/12/07 14:23:30;;;;;;;33.95;8.05;;;15.10;58.00;;;;;;5100815;28;20013;-46
2021/12/07 14:26:09;;;;;;;27.33;7.53;;;14.50;59.40;;;;;;5100777;28;20035;-48
2021/12/07 14:28:36;;;;;;;33.55;16.02;;;14.10;61.00;;;;;;5101063;28;20023;-45
2021/12/07 14:31:18;;;;;;;28.50;6.13;;;13.60;61.40;;;;;;5100613;28;20028;-46
2021/12/07 14:33:52;;;;;;;35.47;10.57;;;13.40;61.20;;;;;;5100498;28;20073;-46
2021/12/07 14:36:22;;;;;;;24.50;7.00;;;13.20;63.40;;;;;;5100353;28;20032;-46
2021/12/07 14:38:53;;;;;;;32.05;9.35;;;12.90;63.40;;;;;;5100594;28;20024;-46
2021/12/07 14:41:22;;;;;;;28.42;6.85;;;12.70;64.00;;;;;;5100434;28;20020;-47
2021/12/07 14:43:50;;;;;;;27.55;8.27;;;12.60;64.10;;;;;;5100457;28;20475;-47